createdAt,value
2018-06-01T00:01:02.567Z,101016.75
2018-06-01T00:03:30.128Z,101014.87
2018-06-01T00:05:57.651Z,101024.91
2018-06-01T00:08:25.195Z,101016.80
2018-06-01T00:10:52.735Z,101026.77
2018-06-01T00:13:20.367Z,101027.46
2018-06-01T00:15:47.930Z,101024.23
2018-06-01T00:18:15.484Z,101027.97
2018-06-01T00:20:43.012Z,101023.12
2018-06-01T00:23:10.614Z,101025.95
2018-06-01T00:25:38.150Z,101005.94
2018-06-01T00:28:05.727Z,101018.27
2018-06-01T00:30:33.287Z,101020.22
2018-06-01T00:33:00.815Z,101008.24
2018-06-01T00:35:28.407Z,101014.98
2018-06-01T00:37:55.937Z,101015.55
2018-06-01T00:40:23.528Z,101012.27
2018-06-01T00:42:51.043Z,101013.50
2018-06-01T00:45:18.613Z,101006.08
2018-06-01T00:47:46.213Z,101007.80
2018-06-01T00:50:13.870Z,101016.91
2018-06-01T00:52:41.428Z,101016.14
2018-06-01T00:55:20.760Z,101016.00
2018-06-01T00:57:48.311Z,101012.39
2018-06-01T01:00:15.866Z,101016.67
2018-06-01T01:02:43.445Z,101016.05
2018-06-01T01:05:11.005Z,101015.45
2018-06-01T01:07:38.532Z,101022.78
2018-06-01T01:10:06.048Z,101019.84
2018-06-01T01:12:33.583Z,101014.58
2018-06-01T01:15:01.109Z,101017.52
2018-06-01T01:17:28.697Z,101012.76
2018-06-01T01:19:56.227Z,101012.25
2018-06-01T01:22:23.788Z,101021.92
2018-06-01T01:24:51.367Z,101017.02
2018-06-01T01:27:18.927Z,101017.78
2018-06-01T01:29:46.460Z,101025.44
2018-06-01T01:32:14.058Z,101025.69
2018-06-01T01:34:41.609Z,101029.95
2018-06-01T01:37:09.119Z,101024.53
2018-06-01T01:39:36.677Z,101026.25
2018-06-01T01:42:04.232Z,101021.64
2018-06-01T01:44:31.755Z,101018.98
2018-06-01T01:46:59.282Z,101018.34
2018-06-01T01:49:26.852Z,101023.45
2018-06-01T01:51:54.373Z,101026.27
2018-06-01T01:54:21.904Z,101027.77
2018-06-01T01:56:49.441Z,101028.80
2018-06-01T01:59:16.986Z,101030.16
2018-06-01T02:01:44.571Z,101030.08
2018-06-01T02:04:12.136Z,101029.01
2018-06-01T02:06:39.665Z,101031.83
2018-06-01T02:09:07.189Z,101030.66
2018-06-01T02:11:34.822Z,101031.38
2018-06-01T02:14:02.391Z,101030.14
2018-06-01T02:16:29.922Z,101028.93
2018-06-01T02:18:57.499Z,101033.78
2018-06-01T02:21:25.056Z,101034.20
2018-06-01T02:23:52.584Z,101034.13
2018-06-01T02:26:20.112Z,101034.25
2018-06-01T02:28:47.737Z,101026.83
2018-06-01T02:31:15.264Z,101033.24
2018-06-01T02:33:42.784Z,101028.43
2018-06-01T02:36:10.319Z,101027.41
2018-06-01T02:38:37.862Z,101034.77
2018-06-01T02:41:05.401Z,101034.10
2018-06-01T02:43:32.925Z,101032.89
2018-06-01T02:46:00.452Z,101032.66
2018-06-01T02:48:27.975Z,101031.88
2018-06-01T02:50:55.573Z,101031.29
2018-06-01T02:53:23.101Z,101028.12
2018-06-01T02:55:50.620Z,101033.16
2018-06-01T02:58:18.182Z,101037.16
2018-06-01T03:00:45.708Z,101038.88
2018-06-01T03:03:13.232Z,101037.00
2018-06-01T03:05:40.832Z,101042.43
2018-06-01T03:08:08.352Z,101040.54
2018-06-01T03:10:35.881Z,101039.96
2018-06-01T03:13:03.408Z,101046.02
2018-06-01T03:15:30.932Z,101036.09
2018-06-01T03:17:58.526Z,101034.73
2018-06-01T03:20:26.052Z,101034.11
2018-06-01T03:22:53.581Z,101035.31
2018-06-01T03:25:21.191Z,101041.48
2018-06-01T03:27:48.724Z,101040.44
2018-06-01T03:30:16.295Z,101041.03
2018-06-01T03:32:43.884Z,101038.15
2018-06-01T03:35:11.412Z,101039.67
2018-06-01T03:37:38.995Z,101042.41
2018-06-01T03:40:06.531Z,101040.47
2018-06-01T03:42:34.125Z,101037.49
2018-06-01T03:45:01.685Z,101036.80
2018-06-01T03:47:29.212Z,101042.41
2018-06-01T03:49:56.804Z,101041.82
2018-06-01T03:52:24.368Z,101031.03
2018-06-01T03:54:51.911Z,101034.75
2018-06-01T03:57:19.452Z,101036.83
2018-06-01T03:59:46.968Z,101040.44
2018-06-01T04:02:14.606Z,101049.16
2018-06-01T04:04:42.136Z,101047.63
2018-06-01T04:07:09.726Z,101051.08
2018-06-01T04:09:37.291Z,101052.99
2018-06-01T04:12:04.947Z,101052.17
2018-06-01T04:14:32.642Z,101046.15
2018-06-01T04:17:01.193Z,101051.50
2018-06-01T04:19:28.724Z,101046.63
2018-06-01T04:21:56.244Z,101046.62
2018-06-01T04:24:23.865Z,101044.31
2018-06-01T04:26:51.417Z,101045.41
2018-06-01T04:29:18.949Z,101053.12
2018-06-01T04:31:46.479Z,101048.74
2018-06-01T04:34:14.011Z,101051.40
2018-06-01T04:36:41.536Z,101044.13
2018-06-01T04:39:09.084Z,101046.31
2018-06-01T04:41:36.685Z,101038.88
2018-06-01T04:44:04.251Z,101046.58
2018-06-01T04:46:31.805Z,101039.50
2018-06-01T04:48:59.337Z,101036.21
2018-06-01T04:51:26.864Z,101045.21
2018-06-01T04:53:54.396Z,101049.12
2018-06-01T04:56:21.924Z,101044.88
2018-06-01T04:58:49.511Z,101045.97
2018-06-01T05:01:17.060Z,101041.69
2018-06-01T05:03:44.617Z,101043.21
2018-06-01T05:06:12.144Z,101049.50
2018-06-01T05:08:39.712Z,101049.43
2018-06-01T05:11:07.231Z,101048.69
2018-06-01T05:13:34.868Z,101050.41
2018-06-01T05:16:02.429Z,101048.69
2018-06-01T05:18:29.955Z,101039.91
2018-06-01T05:20:57.476Z,101041.92
2018-06-01T05:23:25.107Z,101041.77
2018-06-01T05:25:52.671Z,101037.16
2018-06-01T05:28:20.228Z,101047.95
2018-06-01T05:30:47.752Z,101042.44
2018-06-01T05:33:15.288Z,101045.47
2018-06-01T05:35:42.828Z,101041.03
2018-06-01T05:38:10.466Z,101039.02
2018-06-01T05:40:38.000Z,101038.89
2018-06-01T05:43:05.588Z,101038.09
2018-06-01T05:45:33.147Z,101026.93
2018-06-01T05:48:00.707Z,101032.78
2018-06-01T05:50:28.236Z,101028.78
2018-06-01T05:52:55.765Z,101029.73
2018-06-01T05:55:23.386Z,101033.17
2018-06-01T05:57:50.941Z,101030.86
2018-06-01T06:00:18.501Z,101024.23
2018-06-01T06:02:46.070Z,101033.08
2018-06-01T06:05:13.627Z,101033.64
2018-06-01T06:07:41.188Z,101037.54
2018-06-01T06:10:08.749Z,101034.13
2018-06-01T06:12:36.411Z,101031.53
2018-06-01T06:15:03.937Z,101031.11
2018-06-01T06:17:31.534Z,101024.84
2018-06-01T06:19:59.204Z,101018.27
2018-06-01T06:22:26.870Z,101030.61
2018-06-01T06:24:54.415Z,101029.87
2018-06-01T06:27:21.939Z,101031.41
2018-06-01T06:29:49.533Z,101026.51
2018-06-01T06:32:17.065Z,101036.38
2018-06-01T06:34:44.658Z,101023.53
2018-06-01T06:37:12.314Z,101031.92
2018-06-01T06:39:39.877Z,101026.84
2018-06-01T06:42:07.407Z,101029.25
2018-06-01T06:44:34.992Z,101034.36
2018-06-01T06:47:02.525Z,101033.16
2018-06-01T06:49:30.116Z,101034.97
2018-06-01T06:51:57.644Z,101038.16
2018-06-01T06:54:25.168Z,101043.58
2018-06-01T06:56:52.704Z,101053.19
2018-06-01T06:59:20.236Z,101052.12
2018-06-01T07:01:47.783Z,101055.06
2018-06-01T07:04:15.368Z,101050.91
2018-06-01T07:06:42.934Z,101050.16
2018-06-01T07:09:10.459Z,101052.25
2018-06-01T07:11:38.048Z,101050.23
2018-06-01T07:14:05.577Z,101053.24
2018-06-01T07:16:33.113Z,101050.55
2018-06-01T07:19:00.738Z,101048.25
2018-06-01T07:21:28.268Z,101047.83
2018-06-01T07:23:55.852Z,101045.16
2018-06-01T07:26:23.411Z,101045.50
2018-06-01T07:28:50.956Z,101060.14
2018-06-01T07:31:18.479Z,101054.32
2018-06-01T07:33:46.024Z,101062.27
2018-06-01T07:36:13.553Z,101063.57
2018-06-01T07:38:41.089Z,101063.67
2018-06-01T07:41:08.623Z,101070.37
2018-06-01T07:43:36.227Z,101071.55
2018-06-01T07:46:03.758Z,101074.33
2018-06-01T07:48:31.349Z,101075.92
2018-06-01T07:50:58.907Z,101076.92
2018-06-01T07:53:26.468Z,101075.97
2018-06-01T07:55:54.127Z,101079.95
2018-06-01T07:58:21.656Z,101086.04
2018-06-01T08:00:49.256Z,101093.30
2018-06-01T08:03:16.779Z,101090.58
2018-06-01T08:05:44.368Z,101078.69
2018-06-01T08:08:11.902Z,101082.32
2018-06-01T08:10:39.430Z,101085.09
2018-06-01T08:13:07.049Z,101083.75
2018-06-01T08:15:34.610Z,101080.75
2018-06-01T08:18:02.141Z,101073.94
2018-06-01T08:20:29.725Z,101080.00
2018-06-01T08:22:57.287Z,101085.56
2018-06-01T08:25:24.849Z,101086.56
2018-06-01T08:27:52.377Z,101086.94
2018-06-01T08:30:19.904Z,101084.17
2018-06-01T08:32:47.493Z,101088.00
2018-06-01T08:35:15.089Z,101087.09
2018-06-01T08:37:42.636Z,101086.07
2018-06-01T08:40:10.160Z,101088.19
2018-06-01T08:42:37.703Z,101077.46
2018-06-01T08:45:05.332Z,101075.46
2018-06-01T08:47:32.856Z,101071.11
2018-06-01T08:50:00.375Z,101072.78
2018-06-01T08:52:28.012Z,101066.77
2018-06-01T08:54:55.567Z,101065.68
2018-06-01T08:57:23.101Z,101062.30
2018-06-01T08:59:50.625Z,101064.59
2018-06-01T09:02:18.248Z,101060.11
2018-06-01T09:04:45.779Z,101050.50
2018-06-01T09:07:13.368Z,101053.52
2018-06-01T09:09:40.893Z,101037.34
2018-06-01T09:12:08.489Z,101037.91
2018-06-01T09:14:36.045Z,101036.50
2018-06-01T09:17:03.609Z,101041.59
2018-06-01T09:19:31.180Z,101038.57
2018-06-01T09:21:58.727Z,101038.17
2018-06-01T09:24:26.252Z,101040.78
2018-06-01T09:26:53.773Z,101041.90
2018-06-01T09:29:21.303Z,101036.82
2018-06-01T09:31:48.847Z,101042.89
2018-06-01T09:34:16.419Z,101045.66
2018-06-01T09:36:43.951Z,101049.17
2018-06-01T09:39:11.488Z,101041.87
2018-06-01T09:41:39.042Z,101050.48
2018-06-01T09:44:06.575Z,101048.30
2018-06-01T09:46:34.225Z,101043.93
2018-06-01T09:49:01.767Z,101048.44
2018-06-01T09:51:29.301Z,101045.20
2018-06-01T09:53:56.903Z,101046.27
2018-06-01T09:56:24.461Z,101046.13
2018-06-01T09:58:51.982Z,101040.80
2018-06-01T10:01:25.158Z,101047.61
2018-06-01T10:03:52.769Z,101052.47
2018-06-01T10:06:20.288Z,101054.97
2018-06-01T10:08:47.838Z,101051.81
2018-06-01T10:11:15.452Z,101054.13
2018-06-01T10:13:42.975Z,101053.54
2018-06-01T10:16:10.492Z,101057.80
2018-06-01T10:18:38.031Z,101058.30
2018-06-01T10:21:05.594Z,101059.69
2018-06-01T10:23:33.167Z,101052.39
2018-06-01T10:26:00.693Z,101050.73
2018-06-01T10:28:28.270Z,101053.11
2018-06-01T10:30:55.829Z,101045.91
2018-06-01T10:33:23.365Z,101047.88
2018-06-01T10:35:50.893Z,101044.89
2018-06-01T10:38:18.516Z,101042.02
2018-06-01T10:40:46.077Z,101042.62
2018-06-01T10:43:13.604Z,101037.94
2018-06-01T10:45:41.192Z,101038.66
2018-06-01T10:48:08.730Z,101037.27
2018-06-01T10:50:36.261Z,101033.27
2018-06-01T10:53:03.868Z,101033.86
2018-06-01T10:55:31.428Z,101031.28
2018-06-01T10:57:58.966Z,101032.61
2018-06-01T11:00:26.512Z,101031.31
2018-06-01T11:02:54.064Z,101035.17
2018-06-01T11:05:21.598Z,101030.83
2018-06-01T11:07:49.125Z,101036.49
2018-06-01T11:10:16.690Z,101030.73
2018-06-01T11:12:44.223Z,101029.91
2018-06-01T11:15:11.803Z,101028.38
2018-06-01T11:17:39.340Z,101027.22
2018-06-01T11:20:06.927Z,101028.76
2018-06-01T11:22:34.487Z,101023.84
2018-06-01T11:25:02.018Z,101018.91
2018-06-01T11:27:29.547Z,101024.36
2018-06-01T11:29:57.170Z,101020.73
2018-06-01T11:32:24.755Z,101017.13
2018-06-01T11:34:52.267Z,101010.08
2018-06-01T11:37:19.857Z,101002.94
2018-06-01T11:39:47.375Z,100992.82
2018-06-01T11:42:14.897Z,100984.00
2018-06-01T11:44:42.681Z,100982.19
2018-06-01T11:47:10.312Z,100977.52
2018-06-01T11:49:38.040Z,100977.24
2018-06-01T11:52:05.710Z,100969.77
2018-06-01T11:54:33.531Z,100965.82
2018-06-01T11:57:01.372Z,100966.58
2018-06-01T11:59:29.420Z,100967.47
2018-06-01T12:01:56.991Z,100959.14
2018-06-01T12:04:24.503Z,100958.70
2018-06-01T12:06:52.023Z,100962.16
2018-06-01T12:09:19.556Z,100954.75
2018-06-01T12:11:47.070Z,100955.92
2018-06-01T12:14:14.616Z,100947.69
2018-06-01T12:16:42.140Z,100947.41
2018-06-01T12:19:09.672Z,100950.38
2018-06-01T12:21:37.188Z,100943.83
2018-06-01T12:24:04.710Z,100939.55
2018-06-01T12:26:32.242Z,100939.11
2018-06-01T12:28:59.845Z,100936.05
2018-06-01T12:31:27.496Z,100925.05
2018-06-01T12:33:55.053Z,100932.35
2018-06-01T12:36:22.590Z,100924.03
2018-06-01T12:38:50.118Z,100918.74
2018-06-01T12:41:17.734Z,100929.36
2018-06-01T12:43:45.260Z,100924.89
2018-06-01T12:46:12.931Z,100922.23
2018-06-01T12:48:40.514Z,100917.86
2018-06-01T12:51:08.045Z,100917.98
2018-06-01T12:53:35.580Z,100920.80
2018-06-01T12:56:03.194Z,100921.03
2018-06-01T12:58:30.726Z,100928.91
2018-06-01T13:00:58.256Z,100925.85
2018-06-01T13:03:25.849Z,100921.05
2018-06-01T13:05:53.368Z,100914.94
2018-06-01T13:08:20.904Z,100912.84
2018-06-01T13:10:48.432Z,100906.23
2018-06-01T13:13:15.952Z,100911.72
2018-06-01T13:15:43.781Z,100913.46
2018-06-01T13:18:11.337Z,100907.06
2018-06-01T13:20:38.983Z,100910.19
2018-06-01T13:23:06.462Z,100903.93
2018-06-01T13:25:33.985Z,100900.66
2018-06-01T13:28:01.504Z,100886.67
2018-06-01T13:30:29.034Z,100889.13
2018-06-01T13:32:56.593Z,100884.51
2018-06-01T13:35:24.231Z,100891.68
2018-06-01T13:37:51.823Z,100901.36
2018-06-01T13:40:19.346Z,100895.33
2018-06-01T13:42:46.981Z,100900.48
2018-06-01T13:45:14.596Z,100893.47
2018-06-01T13:47:42.162Z,100890.70
2018-06-01T13:50:09.799Z,100882.00
2018-06-01T13:52:37.340Z,100877.78
2018-06-01T13:55:05.072Z,100880.66
2018-06-01T13:57:32.633Z,100875.01
2018-06-01T14:00:00.268Z,100866.77
2018-06-01T14:02:27.937Z,100863.84
2018-06-01T14:04:55.458Z,100862.01
2018-06-01T14:07:23.044Z,100855.04
2018-06-01T14:09:50.605Z,100850.13
2018-06-01T14:12:18.128Z,100842.66
2018-06-01T14:14:45.721Z,100846.61
2018-06-01T14:17:13.250Z,100843.59
2018-06-01T14:19:40.843Z,100846.50
2018-06-01T14:22:08.360Z,100850.80
2018-06-01T14:24:35.929Z,100844.92
2018-06-01T14:27:03.453Z,100849.87
2018-06-01T14:29:30.987Z,100840.98
2018-06-01T14:31:58.541Z,100848.61
2018-06-01T14:34:26.070Z,100844.74
2018-06-01T14:36:53.600Z,100842.55
2018-06-01T14:39:21.121Z,100845.52
2018-06-01T14:41:48.647Z,100839.22
2018-06-01T14:44:16.238Z,100838.79
2018-06-01T14:46:43.768Z,100840.02
2018-06-01T14:49:11.283Z,100834.88
2018-06-01T14:51:38.815Z,100835.22
2018-06-01T14:54:06.345Z,100833.23
2018-06-01T14:56:33.935Z,100835.51
2018-06-01T14:59:01.465Z,100832.60
2018-06-01T15:01:28.996Z,100830.57
2018-06-01T15:03:56.548Z,100821.34
2018-06-01T15:06:24.116Z,100820.88
2018-06-01T15:08:51.681Z,100810.32
2018-06-01T15:11:19.310Z,100818.80
2018-06-01T15:13:46.882Z,100818.11
2018-06-01T15:16:14.517Z,100820.22
2018-06-01T15:18:42.049Z,100826.34
2018-06-01T15:21:09.634Z,100823.65
2018-06-01T15:23:37.195Z,100830.12
2018-06-01T15:26:04.724Z,100833.31
2018-06-01T15:28:32.285Z,100841.09
2018-06-01T15:30:59.814Z,100859.77
2018-06-01T15:33:27.348Z,100870.89
2018-06-01T15:35:54.875Z,100872.41
2018-06-01T15:38:22.392Z,100865.39
2018-06-01T15:40:49.975Z,100861.72
2018-06-01T15:43:17.468Z,100858.38
2018-06-01T15:45:45.029Z,100862.84
2018-06-01T15:48:12.558Z,100864.63
2018-06-01T15:50:40.149Z,100859.66
2018-06-01T15:53:07.681Z,100862.80
2018-06-01T15:55:35.211Z,100864.53
2018-06-01T15:58:02.830Z,100874.89
2018-06-01T16:00:30.362Z,100878.44
2018-06-01T16:02:57.947Z,100879.05
2018-06-01T16:05:25.480Z,100890.20
2018-06-01T16:07:53.068Z,100896.27
2018-06-01T16:10:20.716Z,100884.95
2018-06-01T16:12:48.259Z,100888.19
2018-06-01T16:15:15.848Z,100886.08
2018-06-01T16:17:43.371Z,100888.90
2018-06-01T16:20:10.981Z,100903.49
2018-06-01T16:22:38.498Z,100909.16
2018-06-01T16:25:06.061Z,100916.38
2018-06-01T16:27:34.303Z,100924.22
2018-06-01T16:30:01.824Z,100922.42
2018-06-01T16:32:29.382Z,100916.92
2018-06-01T16:34:56.911Z,100917.56
2018-06-01T16:37:24.506Z,100917.13
2018-06-01T16:39:52.124Z,100921.45
2018-06-01T16:42:19.618Z,100920.21
2018-06-01T16:44:47.182Z,100931.92
2018-06-01T16:47:14.714Z,100944.09
2018-06-01T16:49:42.302Z,100950.77
2018-06-01T16:52:09.836Z,100955.16
2018-06-01T16:54:37.645Z,100969.39
2018-06-01T16:57:05.188Z,100973.77
2018-06-01T16:59:32.845Z,100991.73
2018-06-01T17:02:00.413Z,100994.22
2018-06-01T17:04:27.968Z,101007.39
2018-06-01T17:06:55.501Z,101003.13
2018-06-01T17:09:23.088Z,101005.58
2018-06-01T17:11:50.768Z,100985.79
2018-06-01T17:14:18.411Z,100976.56
2018-06-01T17:16:45.975Z,100978.47
2018-06-01T17:19:13.687Z,100973.81
2018-06-01T17:21:41.224Z,100990.39
2018-06-01T17:24:08.858Z,101000.05
2018-06-01T17:26:36.392Z,101030.06
2018-06-01T17:29:03.981Z,101049.09
2018-06-01T17:31:31.510Z,101064.52
2018-06-01T17:33:59.053Z,101045.64
2018-06-01T17:36:26.597Z,101046.45
2018-06-01T17:38:54.222Z,101055.88
2018-06-01T17:41:21.782Z,115821.14
2018-06-01T17:43:49.338Z,115821.14
2018-06-01T17:46:16.897Z,115821.14
2018-06-01T17:48:44.453Z,115821.14
2018-06-01T17:51:11.988Z,115821.14
2018-06-01T17:53:39.545Z,115821.14
2018-06-01T17:56:07.106Z,115821.14
2018-06-01T17:58:34.653Z,115821.14
2018-06-01T18:01:02.205Z,115821.14
2018-06-01T18:03:29.756Z,115821.14
2018-06-01T18:05:57.343Z,115821.14
2018-06-01T18:08:24.875Z,115821.14
2018-06-01T18:10:52.433Z,115821.14
2018-06-01T18:13:19.984Z,115821.14
2018-06-01T18:15:47.520Z,115821.14
2018-06-01T18:18:15.079Z,115821.14
2018-06-01T18:20:42.637Z,115821.14
2018-06-01T18:23:10.201Z,115821.14
2018-06-01T18:25:37.753Z,115821.14
2018-06-01T18:28:06.047Z,115821.14
2018-06-01T18:30:33.589Z,115821.14
2018-06-01T18:33:01.163Z,115821.14
2018-06-01T18:35:28.711Z,115821.14
2018-06-01T18:37:56.376Z,115821.14
2018-06-01T18:40:23.936Z,115821.14
2018-06-01T18:42:51.499Z,115821.14
2018-06-01T18:45:19.058Z,115821.14
2018-06-01T18:47:46.612Z,115821.14
2018-06-01T18:50:14.168Z,115821.14
2018-06-01T18:52:41.865Z,115821.14
2018-06-01T18:55:09.411Z,115821.14
2018-06-01T18:57:36.955Z,101041.36
2018-06-01T19:00:04.553Z,115821.14
2018-06-01T19:02:32.181Z,115821.14
2018-06-01T19:04:59.723Z,101066.58
2018-06-01T19:07:27.267Z,101071.47
2018-06-01T19:09:55.057Z,101065.52
2018-06-01T19:12:22.589Z,101067.57
2018-06-01T19:14:50.124Z,101069.34
2018-06-01T19:17:17.668Z,101076.64
2018-06-01T19:19:45.199Z,101091.41
2018-06-01T19:22:12.760Z,101091.16
2018-06-01T19:24:40.355Z,101115.73
2018-06-01T19:27:07.879Z,101119.08
2018-06-01T19:29:35.439Z,101124.11
2018-06-01T19:32:02.987Z,101118.09
2018-06-01T19:34:30.565Z,101105.96
2018-06-01T19:36:58.104Z,101108.58
2018-06-01T19:39:25.646Z,101105.60
2018-06-01T19:41:53.172Z,101098.76
2018-06-01T19:44:20.903Z,101085.67
2018-06-01T19:46:48.465Z,101077.23
2018-06-01T19:49:16.014Z,101076.09
2018-06-01T19:51:43.553Z,101077.46
2018-06-01T19:54:11.143Z,101075.41
2018-06-01T19:56:38.699Z,101079.98
2018-06-01T19:59:06.261Z,101079.55
2018-06-01T20:01:33.805Z,101068.81
2018-06-01T20:04:01.347Z,101078.30
2018-06-01T20:06:28.945Z,101071.34
2018-06-01T20:08:56.604Z,101065.91
2018-06-01T20:11:24.133Z,101056.03
2018-06-01T20:13:51.670Z,101056.68
2018-06-01T20:16:19.212Z,101057.98
2018-06-01T20:18:46.844Z,101056.79
2018-06-01T20:21:14.516Z,101054.78
2018-06-01T20:23:42.272Z,101041.02
2018-06-01T20:26:09.797Z,101031.24
2018-06-01T20:28:37.408Z,101031.56
2018-06-01T20:31:05.068Z,101026.86
2018-06-01T20:33:32.644Z,101029.52
2018-06-01T20:36:00.176Z,101019.20
2018-06-01T20:38:27.716Z,101021.69
2018-06-01T20:40:55.292Z,101020.24
2018-06-01T20:43:22.854Z,101009.64
2018-06-01T20:45:50.643Z,101013.48
2018-06-01T20:48:18.172Z,101007.45
2018-06-01T20:50:45.751Z,101016.11
2018-06-01T20:53:13.404Z,101011.44
2018-06-01T20:55:40.943Z,101014.36
2018-06-01T20:58:08.493Z,101019.50
2018-06-01T21:00:36.024Z,101018.06
2018-06-01T21:03:03.676Z,101020.64
2018-06-01T21:05:31.302Z,101020.88
2018-06-01T21:07:58.824Z,101028.70
2018-06-01T21:10:26.409Z,101020.42
2018-06-01T21:12:53.938Z,101036.92
2018-06-01T21:15:21.549Z,101036.85
2018-06-01T21:17:49.089Z,101040.13
2018-06-01T21:20:16.629Z,101039.15
2018-06-01T21:22:44.160Z,101036.81
2018-06-01T21:25:11.716Z,101041.73
2018-06-01T21:27:39.347Z,101036.92
2018-06-01T21:30:06.901Z,101039.62
2018-06-01T21:32:34.448Z,101041.98
2018-06-01T21:35:01.978Z,101042.31
2018-06-01T21:37:29.585Z,101039.97
2018-06-01T21:39:57.128Z,101037.10
2018-06-01T21:42:24.733Z,101036.78
2018-06-01T21:44:52.364Z,101036.81
2018-06-01T21:47:19.908Z,101044.73
2018-06-01T21:49:47.468Z,101045.59
2018-06-01T21:52:15.008Z,101036.84
2018-06-01T21:54:42.607Z,101029.52
2018-06-01T21:57:10.251Z,101028.51
2018-06-01T21:59:37.785Z,101028.53
2018-06-01T22:02:05.317Z,101025.34
2018-06-01T22:04:32.844Z,101028.52
2018-06-01T22:07:00.379Z,101035.27
2018-06-01T22:09:27.917Z,101030.56
2018-06-01T22:11:55.524Z,101034.33
2018-06-01T22:14:23.600Z,101037.13
2018-06-01T22:16:51.191Z,101030.55
2018-06-01T22:19:18.756Z,101026.09
2018-06-01T22:21:46.291Z,101031.23
2018-06-01T22:24:13.831Z,101021.59
2018-06-01T22:26:41.360Z,101022.60
2018-06-01T22:29:08.897Z,101015.09
2018-06-01T22:31:36.480Z,101013.07
2018-06-01T22:34:04.075Z,101006.83
2018-06-01T22:36:31.620Z,101005.86
2018-06-01T22:38:59.197Z,101002.72
2018-06-01T22:41:26.739Z,100999.56
2018-06-01T22:43:54.271Z,101007.11
2018-06-01T22:46:21.807Z,101002.73
2018-06-01T22:48:49.380Z,100993.69
2018-06-01T22:51:16.921Z,100994.91
2018-06-01T22:53:44.452Z,100991.88
2018-06-01T22:56:11.996Z,100993.31
2018-06-01T22:58:39.522Z,100988.89
2018-06-01T23:01:07.099Z,100992.20
2018-06-01T23:03:34.694Z,100992.98
2018-06-01T23:06:02.219Z,100990.38
2018-06-01T23:08:29.818Z,100981.25
2018-06-01T23:10:57.340Z,100984.23
2018-06-01T23:13:24.865Z,100976.30
2018-06-01T23:15:52.391Z,100980.66
2018-06-01T23:18:19.916Z,100978.33
2018-06-01T23:20:47.452Z,100977.07
2018-06-01T23:23:15.029Z,100980.37
2018-06-01T23:25:42.560Z,100981.30
2018-06-01T23:28:10.093Z,100977.13
2018-06-01T23:30:37.615Z,100983.60
2018-06-01T23:33:05.208Z,100981.41
2018-06-01T23:35:32.741Z,100980.55
2018-06-01T23:38:00.275Z,100989.16
2018-06-01T23:40:27.889Z,100992.22
2018-06-01T23:42:55.447Z,100994.95
2018-06-01T23:45:22.975Z,100996.56
2018-06-01T23:47:50.569Z,100998.16
2018-06-01T23:50:18.131Z,101003.44
2018-06-01T23:52:45.664Z,101005.84
2018-06-01T23:55:13.249Z,101008.64
2018-06-01T23:57:40.808Z,101007.97
